sensor_id;sensor_type;location;lat;lon;timestamp;pressure;altitude;pressure_sealevel;temperature;humidity
66742;BME280;53654;54.152;19.432;2023-10-19T00:02:07;101198.65;;;9.22;86.56
66742;BME280;53654;54.152;19.432;2023-10-19T00:04:35;101197.80;;;9.24;86.42
66742;BME280;53654;54.152;19.432;2023-10-19T00:07:04;101196.23;;;9.25;86.05
66742;BME280;53654;54.152;19.432;2023-10-19T00:09:35;101192.05;;;9.26;86.03
66742;BME280;53654;54.152;19.432;2023-10-19T00:12:07;101192.23;;;9.28;85.85
66742;BME280;53654;54.152;19.432;2023-10-19T00:14:37;101190.14;;;9.26;85.65
66742;BME280;53654;54.152;19.432;2023-10-19T00:17:05;101187.19;;;9.29;85.67
66742;BME280;53654;54.152;19.432;2023-10-19T00:19:38;101183.54;;;9.30;85.75
66742;BME280;53654;54.152;19.432;2023-10-19T00:22:09;101183.71;;;9.30;85.92
66742;BME280;53654;54.152;19.432;2023-10-19T00:24:43;101175.88;;;9.30;86.00
66742;BME280;53654;54.152;19.432;2023-10-19T00:27:13;101175.52;;;9.31;86.14
66742;BME280;53654;54.152;19.432;2023-10-19T00:29:45;101175.70;;;9.30;86.01
66742;BME280;53654;54.152;19.432;2023-10-19T00:32:17;101168.73;;;9.28;86.07
66742;BME280;53654;54.152;19.432;2023-10-19T00:34:47;101162.64;;;9.28;86.19
66742;BME280;53654;54.152;19.432;2023-10-19T00:37:20;101160.89;;;9.28;86.24
66742;BME280;53654;54.152;19.432;2023-10-19T00:39:55;101158.45;;;9.28;86.15
66742;BME280;53654;54.152;19.432;2023-10-19T00:42:23;101157.41;;;9.26;85.84
66742;BME280;53654;54.152;19.432;2023-10-19T00:44:54;101158.10;;;9.24;85.45
66742;BME280;53654;54.152;19.432;2023-10-19T00:47:29;101154.61;;;9.23;85.00
66742;BME280;53654;54.152;19.432;2023-10-19T00:50:08;101155.30;;;9.21;84.69
66742;BME280;53654;54.152;19.432;2023-10-19T00:52:44;101153.04;;;9.21;84.59
66742;BME280;53654;54.152;19.432;2023-10-19T00:55:19;101148.67;;;9.19;84.45
66742;BME280;53654;54.152;19.432;2023-10-19T00:57:49;101142.23;;;9.17;84.47
66742;BME280;53654;54.152;19.432;2023-10-19T01:00:17;101144.14;;;9.15;84.49
66742;BME280;53654;54.152;19.432;2023-10-19T01:02:59;101138.38;;;9.11;84.29
66742;BME280;53654;54.152;19.432;2023-10-19T01:05:33;101136.80;;;9.08;84.16
66742;BME280;53654;54.152;19.432;2023-10-19T01:08:05;101136.96;;;9.04;83.83
66742;BME280;53654;54.152;19.432;2023-10-19T01:10:52;101137.30;;;9.00;83.70
66742;BME280;53654;54.152;19.432;2023-10-19T01:13:21;101132.75;;;8.97;83.60
66742;BME280;53654;54.152;19.432;2023-10-19T01:15:55;101133.08;;;8.93;83.63
66742;BME280;53654;54.152;19.432;2023-10-19T01:18:26;101127.84;;;8.89;83.54
66742;BME280;53654;54.152;19.432;2023-10-19T01:20:57;101119.30;;;8.86;83.41
66742;BME280;53654;54.152;19.432;2023-10-19T01:23:29;101117.89;;;8.82;83.28
66742;BME280;53654;54.152;19.432;2023-10-19T01:25:58;101117.50;;;8.72;82.97
66742;BME280;53654;54.152;19.432;2023-10-19T01:28:32;101116.59;;;8.62;83.23
66742;BME280;53654;54.152;19.432;2023-10-19T01:31:20;101120.53;;;8.53;83.62
66742;BME280;53654;54.152;19.432;2023-10-19T01:33:58;101119.09;;;8.44;83.93
66742;BME280;53654;54.152;19.432;2023-10-19T01:36:29;101110.36;;;8.38;84.13
66742;BME280;53654;54.152;19.432;2023-10-19T01:39:00;101109.45;;;8.34;84.41
66742;BME280;53654;54.152;19.432;2023-10-19T01:41:29;101109.91;;;8.29;84.53
66742;BME280;53654;54.152;19.432;2023-10-19T01:43:59;101111.60;;;8.22;84.36
66742;BME280;53654;54.152;19.432;2023-10-19T01:46:35;101108.95;;;8.15;84.59
66742;BME280;53654;54.152;19.432;2023-10-19T01:49:05;101107.85;;;8.07;84.70
66742;BME280;53654;54.152;19.432;2023-10-19T01:51:34;101100.69;;;8.02;84.88
66742;BME280;53654;54.152;19.432;2023-10-19T01:54:11;101094.55;;;7.93;84.88
66742;BME280;53654;54.152;19.432;2023-10-19T01:56:39;101096.05;;;7.87;85.14
66742;BME280;53654;54.152;19.432;2023-10-19T01:59:11;101094.41;;;7.77;85.14
66742;BME280;53654;54.152;19.432;2023-10-19T02:01:39;101093.63;;;7.67;85.14
66742;BME280;53654;54.152;19.432;2023-10-19T02:04:13;101091.93;;;7.53;85.42
66742;BME280;53654;54.152;19.432;2023-10-19T02:06:41;101098.98;;;7.45;85.84
66742;BME280;53654;54.152;19.432;2023-10-19T02:09:11;101097.04;;;7.41;86.31
66742;BME280;53654;54.152;19.432;2023-10-19T02:11:50;101092.84;;;7.38;86.57
66742;BME280;53654;54.152;19.432;2023-10-19T02:14:26;101087.78;;;7.35;86.67
66742;BME280;53654;54.152;19.432;2023-10-19T02:16:56;101085.52;;;7.35;87.05
66742;BME280;53654;54.152;19.432;2023-10-19T02:19:27;101084.33;;;7.37;87.36
66742;BME280;53654;54.152;19.432;2023-10-19T02:22:01;101082.42;;;7.38;87.44
66742;BME280;53654;54.152;19.432;2023-10-19T02:24:36;101078.08;;;7.37;87.37
66742;BME280;53654;54.152;19.432;2023-10-19T02:27:04;101066.45;;;7.38;87.36
66742;BME280;53654;54.152;19.432;2023-10-19T02:29:37;101061.27;;;7.39;87.28
66742;BME280;53654;54.152;19.432;2023-10-19T02:32:06;101063.90;;;7.42;87.27
66742;BME280;53654;54.152;19.432;2023-10-19T02:34:35;101061.15;;;7.47;87.14
66742;BME280;53654;54.152;19.432;2023-10-19T02:37:03;101061.70;;;7.49;86.79
66742;BME280;53654;54.152;19.432;2023-10-19T02:39:31;101056.52;;;7.52;86.80
66742;BME280;53654;54.152;19.432;2023-10-19T02:41:59;101053.77;;;7.56;86.70
66742;BME280;53654;54.152;19.432;2023-10-19T02:44:30;101051.17;;;7.58;86.78
66742;BME280;53654;54.152;19.432;2023-10-19T02:46:59;101048.09;;;7.61;86.72
66742;BME280;53654;54.152;19.432;2023-10-19T02:49:30;101043.42;;;7.63;86.61
66742;BME280;53654;54.152;19.432;2023-10-19T02:51:58;101042.39;;;7.65;86.59
66742;BME280;53654;54.152;19.432;2023-10-19T02:54:32;101040.84;;;7.68;86.59
66742;BME280;53654;54.152;19.432;2023-10-19T02:57:03;101041.91;;;7.70;86.81
66742;BME280;53654;54.152;19.432;2023-10-19T02:59:36;101043.85;;;7.74;86.78
66742;BME280;53654;54.152;19.432;2023-10-19T03:02:05;101041.45;;;7.78;86.58
66742;BME280;53654;54.152;19.432;2023-10-19T03:04:37;101038.70;;;7.82;86.58
66742;BME280;53654;54.152;19.432;2023-10-19T03:07:06;101036.29;;;7.86;86.76
66742;BME280;53654;54.152;19.432;2023-10-19T03:09:36;101027.97;;;7.87;86.62
66742;BME280;53654;54.152;19.432;2023-10-19T03:12:05;101025.56;;;7.90;86.43
66742;BME280;53654;54.152;19.432;2023-10-19T03:14:38;101024.35;;;7.90;86.17
66742;BME280;53654;54.152;19.432;2023-10-19T03:17:06;101025.91;;;7.92;85.94
66742;BME280;53654;54.152;19.432;2023-10-19T03:19:37;101023.67;;;7.94;85.98
66742;BME280;53654;54.152;19.432;2023-10-19T03:22:06;101017.95;;;7.96;86.00
66742;BME280;53654;54.152;19.432;2023-10-19T03:24:37;101020.41;;;7.99;86.04
66742;BME280;53654;54.152;19.432;2023-10-19T03:27:14;101016.08;;;8.01;86.16
66742;BME280;53654;54.152;19.432;2023-10-19T03:29:52;101014.70;;;8.03;86.23
66742;BME280;53654;54.152;19.432;2023-10-19T03:32:24;101014.89;;;8.06;86.35
66742;BME280;53654;54.152;19.432;2023-10-19T03:35:04;101010.05;;;8.10;86.42
66742;BME280;53654;54.152;19.432;2023-10-19T03:37:32;101006.77;;;8.15;86.50
66742;BME280;53654;54.152;19.432;2023-10-19T03:40:04;101006.79;;;8.18;86.40
66742;BME280;53654;54.152;19.432;2023-10-19T03:42:37;101008.71;;;8.21;86.24
66742;BME280;53654;54.152;19.432;2023-10-19T03:45:09;101006.98;;;8.23;86.03
66742;BME280;53654;54.152;19.432;2023-10-19T03:47:44;101008.05;;;8.24;85.88
66742;BME280;53654;54.152;19.432;2023-10-19T03:50:12;101004.40;;;8.26;85.68
66742;BME280;53654;54.152;19.432;2023-10-19T03:52:42;101001.80;;;8.27;85.36
66742;BME280;53654;54.152;19.432;2023-10-19T03:55:10;100996.58;;;8.26;85.07
66742;BME280;53654;54.152;19.432;2023-10-19T03:57:39;100994.15;;;8.27;85.09
66742;BME280;53654;54.152;19.432;2023-10-19T04:00:10;100995.38;;;8.30;85.04
66742;BME280;53654;54.152;19.432;2023-10-19T04:02:43;100993.64;;;8.30;84.76
66742;BME280;53654;54.152;19.432;2023-10-19T04:05:12;100989.46;;;8.30;84.58
66742;BME280;53654;54.152;19.432;2023-10-19T04:07:42;100988.05;;;8.27;84.35
66742;BME280;53654;54.152;19.432;2023-10-19T04:10:11;100991.70;;;8.24;84.27
66742;BME280;53654;54.152;19.432;2023-10-19T04:12:57;100991.34;;;8.23;84.47
66742;BME280;53654;54.152;19.432;2023-10-19T04:15:29;100988.39;;;8.22;84.27
66742;BME280;53654;54.152;19.432;2023-10-19T04:18:05;100988.73;;;8.21;84.09
66742;BME280;53654;54.152;19.432;2023-10-19T04:20:38;100986.11;;;8.19;84.20
66742;BME280;53654;54.152;19.432;2023-10-19T04:23:19;100982.28;;;8.17;84.25
66742;BME280;53654;54.152;19.432;2023-10-19T04:25:48;100974.45;;;8.15;84.18
66742;BME280;53654;54.152;19.432;2023-10-19T04:28:17;100969.41;;;8.14;84.11
66742;BME280;53654;54.152;19.432;2023-10-19T04:30:49;100968.36;;;8.14;84.15
66742;BME280;53654;54.152;19.432;2023-10-19T04:33:17;100966.63;;;8.15;84.03
66742;BME280;53654;54.152;19.432;2023-10-19T04:35:46;100971.66;;;8.12;83.83
66742;BME280;53654;54.152;19.432;2023-10-19T04:38:20;100976.70;;;8.12;83.89
66742;BME280;53654;54.152;19.432;2023-10-19T04:40:48;100979.98;;;8.09;83.62
66742;BME280;53654;54.152;19.432;2023-10-19T04:43:18;100979.96;;;8.06;83.56
66742;BME280;53654;54.152;19.432;2023-10-19T04:45:46;100981.16;;;8.03;83.62
66742;BME280;53654;54.152;19.432;2023-10-19T04:48:14;100979.41;;;8.01;83.68
66742;BME280;53654;54.152;19.432;2023-10-19T04:50:43;100977.67;;;8.00;83.72
66742;BME280;53654;54.152;19.432;2023-10-19T04:53:11;100976.95;;;7.97;83.82
66742;BME280;53654;54.152;19.432;2023-10-19T04:55:39;100975.40;;;7.96;83.93
66742;BME280;53654;54.152;19.432;2023-10-19T04:58:07;100975.02;;;7.93;83.95
66742;BME280;53654;54.152;19.432;2023-10-19T05:00:35;100970.48;;;7.87;83.89
66742;BME280;53654;54.152;19.432;2023-10-19T05:03:03;100969.26;;;7.87;84.14
66742;BME280;53654;54.152;19.432;2023-10-19T05:05:31;100964.39;;;7.86;84.22
66742;BME280;53654;54.152;19.432;2023-10-19T05:07:59;100960.91;;;7.85;84.16
66742;BME280;53654;54.152;19.432;2023-10-19T05:10:27;100957.24;;;7.82;84.25
66742;BME280;53654;54.152;19.432;2023-10-19T05:12:56;100953.41;;;7.82;84.40
66742;BME280;53654;54.152;19.432;2023-10-19T05:15:24;100953.75;;;7.79;84.33
66742;BME280;53654;54.152;19.432;2023-10-19T05:17:52;100951.63;;;7.72;84.52
66742;BME280;53654;54.152;19.432;2023-10-19T05:20:21;100951.59;;;7.67;84.72
66742;BME280;53654;54.152;19.432;2023-10-19T05:22:51;100952.92;;;7.60;84.90
66742;BME280;53654;54.152;19.432;2023-10-19T05:25:19;100945.98;;;7.58;84.84
66742;BME280;53654;54.152;19.432;2023-10-19T05:27:48;100952.70;;;7.52;84.88
66742;BME280;53654;54.152;19.432;2023-10-19T05:30:16;100943.65;;;7.48;84.82
66742;BME280;53654;54.152;19.432;2023-10-19T05:32:44;100948.46;;;7.42;84.88
66742;BME280;53654;54.152;19.432;2023-10-19T05:35:14;100956.21;;;7.34;85.03
66742;BME280;53654;54.152;19.432;2023-10-19T05:37:50;100956.66;;;7.25;85.40
66742;BME280;53654;54.152;19.432;2023-10-19T05:40:18;100956.92;;;7.17;85.61
66742;BME280;53654;54.152;19.432;2023-10-19T05:42:47;100958.29;;;7.13;85.56
66742;BME280;53654;54.152;19.432;2023-10-19T05:45:15;100955.15;;;7.12;85.64
66742;BME280;53654;54.152;19.432;2023-10-19T05:47:46;100955.96;;;7.06;85.68
66742;BME280;53654;54.152;19.432;2023-10-19T05:50:14;100956.50;;;7.07;85.63
66742;BME280;53654;54.152;19.432;2023-10-19T05:52:43;100953.38;;;7.06;85.55
66742;BME280;53654;54.152;19.432;2023-10-19T05:55:11;100950.38;;;7.01;85.70
66742;BME280;53654;54.152;19.432;2023-10-19T05:57:40;100951.98;;;7.05;85.63
66742;BME280;53654;54.152;19.432;2023-10-19T06:00:12;100949.88;;;7.04;85.48
66742;BME280;53654;54.152;19.432;2023-10-19T06:02:43;100946.87;;;6.97;85.70
66742;BME280;53654;54.152;19.432;2023-10-19T06:05:13;100944.80;;;6.99;85.70
66742;BME280;53654;54.152;19.432;2023-10-19T06:07:44;100943.10;;;7.02;85.52
66742;BME280;53654;54.152;19.432;2023-10-19T06:10:16;100949.52;;;7.01;85.37
66742;BME280;53654;54.152;19.432;2023-10-19T06:12:46;100950.00;;;6.98;85.20
66742;BME280;53654;54.152;19.432;2023-10-19T06:15:16;100944.60;;;6.96;85.11
66742;BME280;53654;54.152;19.432;2023-10-19T06:17:45;100941.61;;;6.92;85.03
66742;BME280;53654;54.152;19.432;2023-10-19T06:20:14;100952.77;;;6.96;84.91
66742;BME280;53654;54.152;19.432;2023-10-19T06:22:58;100945.85;;;6.99;84.74
66742;BME280;53654;54.152;19.432;2023-10-19T06:25:33;100945.01;;;7.02;84.62
66742;BME280;53654;54.152;19.432;2023-10-19T06:28:05;100943.09;;;7.01;84.40
66742;BME280;53654;54.152;19.432;2023-10-19T06:30:35;100942.60;;;7.04;84.31
66742;BME280;53654;54.152;19.432;2023-10-19T06:33:03;100937.75;;;7.06;83.98
66742;BME280;53654;54.152;19.432;2023-10-19T06:35:32;100941.58;;;7.07;83.86
66742;BME280;53654;54.152;19.432;2023-10-19T06:38:01;100943.52;;;7.10;83.70
66742;BME280;53654;54.152;19.432;2023-10-19T06:40:30;100943.54;;;7.12;83.57
66742;BME280;53654;54.152;19.432;2023-10-19T06:42:58;100944.80;;;7.17;83.35
66742;BME280;53654;54.152;19.432;2023-10-19T06:45:26;100953.98;;;7.16;82.95
66742;BME280;53654;54.152;19.432;2023-10-19T06:47:55;100952.27;;;7.20;82.81
66742;BME280;53654;54.152;19.432;2023-10-19T06:50:24;100953.17;;;7.23;82.57
66742;BME280;53654;54.152;19.432;2023-10-19T06:52:53;100946.95;;;7.26;82.48
66742;BME280;53654;54.152;19.432;2023-10-19T06:55:24;100948.23;;;7.34;82.44
66742;BME280;53654;54.152;19.432;2023-10-19T06:57:53;100951.73;;;7.37;82.01
66742;BME280;53654;54.152;19.432;2023-10-19T07:00:24;100951.36;;;7.36;81.63
66742;BME280;53654;54.152;19.432;2023-10-19T07:02:57;100957.27;;;7.38;81.60
66742;BME280;53654;54.152;19.432;2023-10-19T07:05:28;100959.41;;;7.42;81.50
66742;BME280;53654;54.152;19.432;2023-10-19T07:07:59;100955.77;;;7.44;81.29
66742;BME280;53654;54.152;19.432;2023-10-19T07:10:29;100953.86;;;7.45;81.33
66742;BME280;53654;54.152;19.432;2023-10-19T07:12:57;100953.89;;;7.48;81.12
66742;BME280;53654;54.152;19.432;2023-10-19T07:15:26;100954.08;;;7.49;80.89
66742;BME280;53654;54.152;19.432;2023-10-19T07:17:55;100954.61;;;7.52;80.55
66742;BME280;53654;54.152;19.432;2023-10-19T07:20:24;100956.84;;;7.48;80.30
66742;BME280;53654;54.152;19.432;2023-10-19T07:23:03;100957.86;;;7.45;80.17
66742;BME280;53654;54.152;19.432;2023-10-19T07:25:38;100956.44;;;7.40;80.55
66742;BME280;53654;54.152;19.432;2023-10-19T07:28:12;100949.69;;;7.42;80.45
66742;BME280;53654;54.152;19.432;2023-10-19T07:30:43;100954.02;;;7.42;80.57
66742;BME280;53654;54.152;19.432;2023-10-19T07:33:12;100952.83;;;7.44;80.39
66742;BME280;53654;54.152;19.432;2023-10-19T07:35:50;100950.09;;;7.51;80.56
66742;BME280;53654;54.152;19.432;2023-10-19T07:38:28;100946.65;;;7.55;80.17
66742;BME280;53654;54.152;19.432;2023-10-19T07:40:58;100946.71;;;7.65;80.32
66742;BME280;53654;54.152;19.432;2023-10-19T07:43:26;100943.31;;;7.76;80.23
66742;BME280;53654;54.152;19.432;2023-10-19T07:45:55;100947.03;;;7.88;79.62
66742;BME280;53654;54.152;19.432;2023-10-19T07:48:24;100941.85;;;7.93;78.87
66742;BME280;53654;54.152;19.432;2023-10-19T07:50:53;100940.66;;;7.99;78.48
66742;BME280;53654;54.152;19.432;2023-10-19T07:53:24;100937.73;;;8.03;77.98
66742;BME280;53654;54.152;19.432;2023-10-19T07:55:52;100934.44;;;8.05;77.80
66742;BME280;53654;54.152;19.432;2023-10-19T07:58:21;100933.94;;;8.08;77.41
66742;BME280;53654;54.152;19.432;2023-10-19T08:00:49;100931.50;;;8.08;77.37
66742;BME280;53654;54.152;19.432;2023-10-19T08:03:17;100934.09;;;8.06;76.95
66742;BME280;53654;54.152;19.432;2023-10-19T08:05:46;100929.77;;;8.12;77.05
66742;BME280;53654;54.152;19.432;2023-10-19T08:08:14;100929.23;;;8.05;76.98
66742;BME280;53654;54.152;19.432;2023-10-19T08:10:42;100927.48;;;8.05;76.77
66742;BME280;53654;54.152;19.432;2023-10-19T08:13:10;100930.64;;;8.10;76.77
66742;BME280;53654;54.152;19.432;2023-10-19T08:15:40;100922.30;;;8.11;76.82
66742;BME280;53654;54.152;19.432;2023-10-19T08:18:08;100915.54;;;8.14;76.78
66742;BME280;53654;54.152;19.432;2023-10-19T08:20:40;100918.70;;;8.21;76.54
66742;BME280;53654;54.152;19.432;2023-10-19T08:23:08;100912.29;;;8.27;76.41
66742;BME280;53654;54.152;19.432;2023-10-19T08:25:36;100908.88;;;8.37;76.50
66742;BME280;53654;54.152;19.432;2023-10-19T08:28:23;100912.72;;;8.42;76.15
66742;BME280;53654;54.152;19.432;2023-10-19T08:30:52;100906.30;;;8.48;75.73
66742;BME280;53654;54.152;19.432;2023-10-19T08:33:29;100898.83;;;8.48;75.33
66742;BME280;53654;54.152;19.432;2023-10-19T08:35:58;100891.89;;;8.55;75.79
66742;BME280;53654;54.152;19.432;2023-10-19T08:38:28;100899.20;;;8.60;75.75
66742;BME280;53654;54.152;19.432;2023-10-19T08:40:57;100898.68;;;8.64;75.19
66742;BME280;53654;54.152;19.432;2023-10-19T08:43:26;100893.83;;;8.69;75.11
66742;BME280;53654;54.152;19.432;2023-10-19T08:45:56;100887.05;;;8.76;74.82
66742;BME280;53654;54.152;19.432;2023-10-19T08:48:25;100884.27;;;8.81;74.49
66742;BME280;53654;54.152;19.432;2023-10-19T08:50:54;100888.80;;;8.79;73.68
66742;BME280;53654;54.152;19.432;2023-10-19T08:53:24;100885.13;;;8.75;73.18
66742;BME280;53654;54.152;19.432;2023-10-19T08:55:52;100888.08;;;8.65;73.44
66742;BME280;53654;54.152;19.432;2023-10-19T08:58:22;100879.40;;;8.73;74.10
66742;BME280;53654;54.152;19.432;2023-10-19T09:00:51;100878.53;;;8.81;73.84
66742;BME280;53654;54.152;19.432;2023-10-19T09:03:24;100874.36;;;8.81;73.33
66742;BME280;53654;54.152;19.432;2023-10-19T09:05:55;100879.23;;;8.83;72.98
66742;BME280;53654;54.152;19.432;2023-10-19T09:08:24;100872.97;;;8.81;72.76
66742;BME280;53654;54.152;19.432;2023-10-19T09:10:53;100885.12;;;8.71;71.90
66742;BME280;53654;54.152;19.432;2023-10-19T09:13:22;100872.23;;;8.61;71.35
66742;BME280;53654;54.152;19.432;2023-10-19T09:15:53;100872.95;;;8.63;71.71
66742;BME280;53654;54.152;19.432;2023-10-19T09:18:25;100874.50;;;8.54;71.63
66742;BME280;53654;54.152;19.432;2023-10-19T09:20:57;100860.91;;;8.47;72.21
66742;BME280;53654;54.152;19.432;2023-10-19T09:23:35;100865.95;;;8.43;72.37
66742;BME280;53654;54.152;19.432;2023-10-19T09:26:05;100860.36;;;8.33;72.09
66742;BME280;53654;54.152;19.432;2023-10-19T09:28:36;100859.63;;;8.29;72.14
66742;BME280;53654;54.152;19.432;2023-10-19T09:31:06;100860.01;;;8.32;72.57
66742;BME280;53654;54.152;19.432;2023-10-19T09:33:40;100858.41;;;8.29;72.44
66742;BME280;53654;54.152;19.432;2023-10-19T09:36:10;100857.55;;;8.29;72.56
66742;BME280;53654;54.152;19.432;2023-10-19T09:38:46;100858.92;;;8.25;72.72
66742;BME280;53654;54.152;19.432;2023-10-19T09:41:22;100857.36;;;8.23;73.12
66742;BME280;53654;54.152;19.432;2023-10-19T09:44:01;100853.70;;;8.20;73.37
66742;BME280;53654;54.152;19.432;2023-10-19T09:46:33;100854.02;;;8.13;73.42
66742;BME280;53654;54.152;19.432;2023-10-19T09:49:06;100845.15;;;8.10;73.73
66742;BME280;53654;54.152;19.432;2023-10-19T09:51:36;100839.77;;;8.14;74.02
66742;BME280;53654;54.152;19.432;2023-10-19T09:54:26;100843.92;;;8.06;73.85
66742;BME280;53654;54.152;19.432;2023-10-19T09:57:02;100841.66;;;8.05;74.12
66742;BME280;53654;54.152;19.432;2023-10-19T09:59:37;100835.23;;;8.07;74.04
66742;BME280;53654;54.152;19.432;2023-10-19T10:02:12;100829.86;;;8.08;74.03
66742;BME280;53654;54.152;19.432;2023-10-19T10:04:43;100825.19;;;8.17;74.21
66742;BME280;53654;54.152;19.432;2023-10-19T10:07:14;100819.82;;;8.27;74.27
66742;BME280;53654;54.152;19.432;2023-10-19T10:09:58;100819.15;;;8.32;73.85
66742;BME280;53654;54.152;19.432;2023-10-19T10:12:27;100809.63;;;8.39;73.79
66742;BME280;53654;54.152;19.432;2023-10-19T10:15:00;100806.67;;;8.42;73.33
66742;BME280;53654;54.152;19.432;2023-10-19T10:17:33;100802.83;;;8.34;73.17
66742;BME280;53654;54.152;19.432;2023-10-19T10:22:43;100803.66;;;8.26;73.46
66742;BME280;53654;54.152;19.432;2023-10-19T10:25:27;100800.00;;;8.20;73.66
66742;BME280;53654;54.152;19.432;2023-10-19T10:27:56;100799.29;;;8.15;74.16
66742;BME280;53654;54.152;19.432;2023-10-19T10:30:24;100801.90;;;8.13;74.02
66742;BME280;53654;54.152;19.432;2023-10-19T10:32:53;100797.20;;;8.12;74.09
66742;BME280;53654;54.152;19.432;2023-10-19T10:38:09;100789.73;;;8.10;74.24
66742;BME280;53654;54.152;19.432;2023-10-19T10:40:48;100778.60;;;8.05;74.50
66742;BME280;53654;54.152;19.432;2023-10-19T10:43:19;100778.94;;;8.02;74.56
66742;BME280;53654;54.152;19.432;2023-10-19T10:45:47;100775.63;;;7.99;74.78
66742;BME280;53654;54.152;19.432;2023-10-19T10:48:17;100769.55;;;8.03;75.00
66742;BME280;53654;54.152;19.432;2023-10-19T10:50:45;100769.55;;;8.02;74.76
66742;BME280;53654;54.152;19.432;2023-10-19T10:53:14;100766.26;;;8.04;74.53
66742;BME280;53654;54.152;19.432;2023-10-19T10:55:43;100768.69;;;8.02;74.56
66742;BME280;53654;54.152;19.432;2023-10-19T10:58:15;100763.99;;;8.00;74.57
66742;BME280;53654;54.152;19.432;2023-10-19T11:00:44;100762.77;;;7.98;74.31
66742;BME280;53654;54.152;19.432;2023-10-19T11:03:15;100752.52;;;8.00;74.45
66742;BME280;53654;54.152;19.432;2023-10-19T11:05:44;100745.75;;;8.02;74.50
66742;BME280;53654;54.152;19.432;2023-10-19T11:08:15;100736.55;;;8.10;74.69
66742;BME280;53654;54.152;19.432;2023-10-19T11:10:46;100732.92;;;8.14;74.58
66742;BME280;53654;54.152;19.432;2023-10-19T11:13:16;100733.79;;;8.15;74.10
66742;BME280;53654;54.152;19.432;2023-10-19T11:15:52;100721.61;;;8.17;73.82
66742;BME280;53654;54.152;19.432;2023-10-19T11:21:09;100718.48;;;8.12;73.56
66742;BME280;53654;54.152;19.432;2023-10-19T11:23:42;100713.10;;;8.09;73.79
66742;BME280;53654;54.152;19.432;2023-10-19T11:26:22;100712.23;;;8.11;73.78
66742;BME280;53654;54.152;19.432;2023-10-19T11:29:00;100711.20;;;8.13;73.75
66742;BME280;53654;54.152;19.432;2023-10-19T11:31:38;100709.80;;;8.13;73.54
66742;BME280;53654;54.152;19.432;2023-10-19T11:34:06;100704.42;;;8.14;73.56
66742;BME280;53654;54.152;19.432;2023-10-19T11:36:36;100704.41;;;8.17;73.35
66742;BME280;53654;54.152;19.432;2023-10-19T11:39:06;100697.81;;;8.23;73.51
66742;BME280;53654;54.152;19.432;2023-10-19T11:41:39;100687.73;;;8.29;73.05
66742;BME280;53654;54.152;19.432;2023-10-19T11:44:07;100691.75;;;8.32;72.47
66742;BME280;53654;54.152;19.432;2023-10-19T11:46:36;100692.98;;;8.32;72.02
66742;BME280;53654;54.152;19.432;2023-10-19T11:49:05;100680.44;;;8.29;71.97
66742;BME280;53654;54.152;19.432;2023-10-19T11:51:33;100676.09;;;8.30;71.84
66742;BME280;53654;54.152;19.432;2023-10-19T11:54:01;100678.18;;;8.23;71.83
66742;BME280;53654;54.152;19.432;2023-10-19T11:56:29;100665.67;;;8.21;72.02
66742;BME280;53654;54.152;19.432;2023-10-19T11:58:57;100666.89;;;8.24;72.16
66742;BME280;53654;54.152;19.432;2023-10-19T12:01:25;100668.61;;;8.29;72.06
66742;BME280;53654;54.152;19.432;2023-10-19T12:03:55;100670.55;;;8.31;71.56
66742;BME280;53654;54.152;19.432;2023-10-19T12:06:23;100669.00;;;8.34;71.72
66742;BME280;53654;54.152;19.432;2023-10-19T12:08:51;100667.26;;;8.35;71.69
66742;BME280;53654;54.152;19.432;2023-10-19T12:11:19;100670.39;;;8.35;71.57
66742;BME280;53654;54.152;19.432;2023-10-19T12:13:49;100670.91;;;8.36;71.67
66742;BME280;53654;54.152;19.432;2023-10-19T12:16:18;100672.64;;;8.35;71.29
66742;BME280;53654;54.152;19.432;2023-10-19T12:18:48;100677.48;;;8.29;71.31
66742;BME280;53654;54.152;19.432;2023-10-19T12:21:16;100679.92;;;8.26;71.58
66742;BME280;53654;54.152;19.432;2023-10-19T12:23:46;100677.14;;;8.29;71.81
66742;BME280;53654;54.152;19.432;2023-10-19T12:26:23;100678.55;;;8.38;71.85
66742;BME280;53654;54.152;19.432;2023-10-19T12:28:52;100678.54;;;8.31;71.50
66742;BME280;53654;54.152;19.432;2023-10-19T12:31:20;100678.02;;;8.29;71.11
66742;BME280;53654;54.152;19.432;2023-10-19T12:33:50;100672.80;;;8.25;71.49
66742;BME280;53654;54.152;19.432;2023-10-19T12:36:18;100675.74;;;8.27;71.68
66742;BME280;53654;54.152;19.432;2023-10-19T12:38:59;100678.36;;;8.18;71.53
66742;BME280;53654;54.152;19.432;2023-10-19T12:41:28;100673.14;;;8.19;71.78
66742;BME280;53654;54.152;19.432;2023-10-19T12:43:56;100666.02;;;8.25;71.72
66742;BME280;53654;54.152;19.432;2023-10-19T12:46:30;100663.77;;;8.24;71.67
66742;BME280;53654;54.152;19.432;2023-10-19T12:48:59;100664.63;;;8.21;71.75
66742;BME280;53654;54.152;19.432;2023-10-19T12:51:27;100661.15;;;8.22;71.77
66742;BME280;53654;54.152;19.432;2023-10-19T12:53:55;100659.06;;;8.26;71.82
66742;BME280;53654;54.152;19.432;2023-10-19T12:56:23;100665.14;;;8.27;71.64
66742;BME280;53654;54.152;19.432;2023-10-19T12:58:57;100653.15;;;8.27;71.57
66742;BME280;53654;54.152;19.432;2023-10-19T13:01:25;100647.94;;;8.26;71.49
66742;BME280;53654;54.152;19.432;2023-10-19T13:03:56;100643.42;;;8.24;71.29
66742;BME280;53654;54.152;19.432;2023-10-19T13:06:24;100638.56;;;8.20;71.14
66742;BME280;53654;54.152;19.432;2023-10-19T13:08:57;100634.56;;;8.18;71.26
66742;BME280;53654;54.152;19.432;2023-10-19T13:11:26;100631.96;;;8.19;71.37
66742;BME280;53654;54.152;19.432;2023-10-19T13:13:55;100626.40;;;8.21;71.46
66742;BME280;53654;54.152;19.432;2023-10-19T13:16:23;100629.02;;;8.17;71.36
66742;BME280;53654;54.152;19.432;2023-10-19T13:18:53;100617.71;;;8.18;71.20